Time;durP1;ratioP1;P1;durP2;ratioP2;P2;SDS_P1;SDS_P2;PMS_P1;PMS_P2;Temp;Humidity;BMP_temperature;BMP_pressure;BME280_temperature;BME280_humidity;BME280_pressure;Samples;Min_cycle;Max_cycle;Signal;HPM_P1;HPM_P2
2023/01/27 00:01:56;;;;;;;13.60;6.53;;;4.40;99.90;;;;;;4850157;29;20135;-83
2023/01/27 00:04:21;;;;;;;14.85;6.65;;;4.40;99.90;;;;;;4848269;29;20124;-83
2023/01/27 00:06:47;;;;;;;14.13;6.65;;;4.70;99.90;;;;;;4853247;29;20410;-83
2023/01/27 00:09:13;;;;;;;15.40;7.40;;;4.40;99.90;;;;;;4833031;29;20723;-83
2023/01/27 00:14:22;;;;;;;14.02;6.90;;;4.30;99.90;;;;;;4870395;29;20460;-82
2023/01/27 00:16:48;;;;;;;15.75;7.90;;;4.70;99.90;;;;;;4865604;29;20127;-82
2023/01/27 00:19:18;;;;;;;16.63;6.90;;;5.00;99.90;;;;;;4878179;29;20048;-83
2023/01/27 00:24:35;;;;;;;13.32;7.93;;;4.30;99.90;;;;;;4870536;29;20047;-82
2023/01/27 00:27:01;;;;;;;13.02;6.63;;;4.30;99.90;;;;;;4852715;29;20048;-82
2023/01/27 00:29:27;;;;;;;12.90;6.45;;;4.30;99.90;;;;;;4891590;29;20088;-83
2023/01/27 00:34:38;;;;;;;10.27;5.15;;;4.30;99.90;;;;;;4884131;29;20044;-83
2023/01/27 00:37:04;;;;;;;;;;;4.20;99.90;;;;;;4859266;29;20042;-82
2023/01/27 00:39:30;;;;;;;8.02;4.63;;;5.80;99.90;;;;;;4879580;29;20005;-83
2023/01/27 00:41:55;;;;;;;10.65;4.68;;;4.20;99.90;;;;;;4869508;29;20198;-83
2023/01/27 00:44:22;;;;;;;8.20;4.50;;;4.20;99.90;;;;;;4877820;29;20453;-83
2023/01/27 00:46:49;;;;;;;8.52;4.75;;;4.80;99.90;;;;;;4859368;29;20288;-83
2023/01/27 00:49:14;;;;;;;8.13;4.30;;;4.20;99.90;;;;;;4872771;29;20036;-83
2023/01/27 00:51:41;;;;;;;7.25;4.15;;;4.20;99.90;;;;;;4857012;29;20051;-83
2023/01/27 00:54:07;;;;;;;8.77;4.55;;;4.90;99.90;;;;;;4855969;29;20125;-83
2023/01/27 00:56:33;;;;;;;7.07;4.05;;;4.20;99.90;;;;;;4840146;29;20044;-82
2023/01/27 00:58:59;;;;;;;8.93;4.05;;;4.20;99.90;;;;;;4860432;29;20071;-82
2023/01/27 01:01:25;;;;;;;10.23;3.90;;;4.80;99.90;;;;;;4871989;29;20029;-82
2023/01/27 01:03:50;;;;;;;7.03;3.58;;;4.60;99.90;;;;;;4841538;29;20097;-82
2023/01/27 01:06:18;;;;;;;6.13;3.38;;;4.30;99.90;;;;;;4869330;29;20115;-83
2023/01/27 01:08:44;;;;;;;7.53;3.10;;;4.30;99.90;;;;;;4869962;29;20048;-83
2023/01/27 01:11:14;;;;;;;8.23;3.45;;;4.50;99.90;;;;;;4851748;29;20036;-83
2023/01/27 01:13:42;;;;;;;4.95;3.00;;;4.40;99.90;;;;;;4871944;29;20049;-83
2023/01/27 01:16:17;;;;;;;5.18;2.97;;;4.30;99.90;;;;;;4871721;29;20123;-82
2023/01/27 01:18:43;;;;;;;8.48;3.60;;;4.40;99.90;;;;;;4894516;29;20108;-82
2023/01/27 01:21:10;;;;;;;5.25;3.08;;;5.30;99.90;;;;;;4882082;29;20516;-82
2023/01/27 01:23:41;;;;;;;6.93;3.05;;;4.50;99.90;;;;;;4860441;29;20037;-82
2023/01/27 01:26:09;;;;;;;9.15;3.70;;;4.30;99.90;;;;;;4868354;29;20056;-82
2023/01/27 01:28:35;;;;;;;7.70;3.13;;;4.60;99.90;;;;;;4879565;29;20053;-83
2023/01/27 01:31:09;;;;;;;6.13;3.25;;;4.40;99.90;;;;;;4849997;29;20489;-82
2023/01/27 01:33:35;;;;;;;7.72;3.95;;;4.30;99.90;;;;;;4876099;29;20043;-82
2023/01/27 01:36:10;;;;;;;5.63;3.40;;;4.80;99.90;;;;;;4877233;29;20104;-82
2023/01/27 01:38:36;;;;;;;6.00;2.72;;;4.30;99.90;;;;;;4869838;29;20040;-82
2023/01/27 01:41:02;;;;;;;7.13;2.72;;;4.50;99.90;;;;;;4856091;29;20032;-82
2023/01/27 01:43:27;;;;;;;4.72;2.63;;;4.30;99.90;;;;;;4882823;29;20036;-83
2023/01/27 01:45:55;;;;;;;4.57;2.70;;;5.00;99.90;;;;;;4859708;29;20048;-83
2023/01/27 01:48:30;;;;;;;3.83;2.30;;;4.30;99.90;;;;;;4855939;29;20291;-82
2023/01/27 01:50:55;;;;;;;5.78;2.83;;;4.30;99.90;;;;;;4877218;29;20176;-82
2023/01/27 01:53:28;;;;;;;6.87;2.60;;;4.30;99.90;;;;;;4871165;29;20132;-82
2023/01/27 01:55:56;;;;;;;4.70;2.15;;;5.00;99.90;;;;;;4878704;29;20300;-82
2023/01/27 01:58:23;;;;;;;4.30;2.10;;;4.40;99.90;;;;;;4865969;29;20517;-82
2023/01/27 02:00:49;;;;;;;3.80;2.03;;;4.80;99.90;;;;;;4876309;29;20056;-82
2023/01/27 02:03:15;;;;;;;4.10;1.70;;;4.40;99.90;;;;;;4840678;29;20036;-82
2023/01/27 02:05:43;;;;;;;4.82;1.85;;;4.40;99.90;;;;;;4835902;29;20041;-82
2023/01/27 02:08:18;;;;;;;3.88;1.70;;;5.20;99.90;;;;;;4870471;29;20037;-82
2023/01/27 02:10:44;;;;;;;4.80;1.60;;;4.50;99.90;;;;;;4872587;29;20040;-82
2023/01/27 02:13:11;;;;;;;5.53;1.77;;;4.40;99.90;;;;;;4893370;29;20135;-81
2023/01/27 02:15:37;;;;;;;4.40;1.65;;;4.40;99.90;;;;;;4873303;29;20076;-82
2023/01/27 02:18:03;;;;;;;;;;;5.40;99.90;;;;;;4883483;29;20528;-82
2023/01/27 02:20:44;;;;;;;5.75;1.90;;;4.50;99.90;;;;;;4868946;29;19962;-82
2023/01/27 02:23:19;;;;;;;8.90;1.90;;;5.00;99.90;;;;;;4873078;29;20048;-82
2023/01/27 02:26:08;;;;;;;3.95;1.65;;;4.80;99.90;;;;;;4883414;29;20053;-82
2023/01/27 02:28:34;;;;;;;5.25;1.90;;;4.40;99.90;;;;;;4829448;29;20071;-82
2023/01/27 02:31:00;;;;;;;3.33;1.20;;;4.40;99.90;;;;;;4862293;29;20044;-82
2023/01/27 02:33:26;;;;;;;4.45;2.10;;;4.50;99.90;;;;;;4876388;29;20055;-82
2023/01/27 02:36:02;;;;;;;2.80;1.45;;;4.50;99.90;;;;;;4870142;29;20033;-82
2023/01/27 02:38:33;;;;;;;3.00;1.35;;;4.40;99.90;;;;;;4865855;29;20140;-82
2023/01/27 02:41:04;;;;;;;1.73;1.13;;;4.60;99.90;;;;;;4891018;29;20037;-82
2023/01/27 02:43:29;;;;;;;2.65;1.40;;;4.80;99.90;;;;;;4880440;29;20040;-82
2023/01/27 02:45:55;;;;;;;4.55;1.40;;;4.60;99.90;;;;;;4883996;29;20048;-82
2023/01/27 02:48:21;;;;;;;2.90;1.30;;;5.50;99.90;;;;;;4845841;29;20064;-81
2023/01/27 02:50:46;;;;;;;2.33;1.17;;;5.30;99.90;;;;;;4840910;29;20347;-81
2023/01/27 02:53:12;;;;;;;3.92;1.58;;;5.10;99.90;;;;;;4838813;29;20045;-82
2023/01/27 02:55:38;;;;;;;15.63;2.10;;;5.40;99.90;;;;;;4840945;29;20450;-81
2023/01/27 02:58:03;;;;;;;3.07;1.30;;;4.40;99.90;;;;;;4850152;29;20296;-82
2023/01/27 03:00:29;;;;;;;3.30;1.13;;;5.30;99.90;;;;;;4847074;29;20032;-82
2023/01/27 03:02:55;;;;;;;2.90;1.20;;;4.40;99.90;;;;;;4859311;29;20054;-82
2023/01/27 03:05:21;;;;;;;4.53;1.17;;;4.30;99.90;;;;;;4866447;29;20040;-82
2023/01/27 03:07:46;;;;;;;2.60;1.17;;;4.90;99.90;;;;;;4847776;29;20041;-82
2023/01/27 03:10:12;;;;;;;2.37;1.13;;;4.40;99.90;;;;;;4857376;29;20083;-81
2023/01/27 03:12:37;;;;;;;6.20;1.37;;;5.10;99.90;;;;;;4880772;29;20291;-82
2023/01/27 03:20:32;;;;;;;3.75;1.20;;;4.30;99.90;;;;;;4852964;29;20047;-82
2023/01/27 03:22:57;;;;;;;4.28;1.13;;;4.30;99.90;;;;;;4871827;29;20693;-82
2023/01/27 03:25:23;;;;;;;1.70;1.00;;;4.30;99.90;;;;;;4844226;29;20136;-83
2023/01/27 03:27:50;;;;;;;3.40;1.55;;;4.20;99.90;;;;;;4896686;29;20773;-83
2023/01/27 03:30:15;;;;;;;1.23;0.98;;;4.90;99.90;;;;;;4860370;29;20516;-83
2023/01/27 03:32:47;;;;;;;2.25;1.10;;;4.30;99.90;;;;;;4840237;29;20072;-83
2023/01/27 03:35:14;;;;;;;2.08;0.95;;;5.40;99.90;;;;;;4853631;29;20040;-82
2023/01/27 03:48:39;;;;;;;2.25;1.48;;;4.70;99.90;;;;;;4891591;29;20049;-83
2023/01/27 03:51:06;;;;;;;6.30;1.30;;;5.10;99.90;;;;;;4895403;29;20040;-81
2023/01/27 03:53:34;;;;;;;3.42;0.93;;;4.70;99.90;;;;;;4880683;29;20044;-82
2023/01/27 03:56:00;;;;;;;3.28;0.82;;;4.10;99.90;;;;;;4866915;29;20519;-81
2023/01/27 03:58:28;;;;;;;4.25;1.10;;;4.20;99.90;;;;;;4870854;29;20115;-82
2023/01/27 04:01:00;;;;;;;2.92;1.13;;;4.60;99.90;;;;;;4894798;29;20040;-82
2023/01/27 04:09:07;;;;;;;2.42;1.00;;;4.10;99.90;;;;;;4881331;29;20052;-82
2023/01/27 04:14:17;;;;;;;2.10;1.00;;;5.10;99.90;;;;;;4889258;29;20052;-82
2023/01/27 04:16:44;;;;;;;2.55;1.00;;;4.00;99.90;;;;;;4847408;29;20386;-82
2023/01/27 04:19:10;;;;;;;5.20;0.93;;;4.00;99.90;;;;;;4870366;29;20053;-82
2023/01/27 04:21:36;;;;;;;3.97;1.45;;;4.00;99.90;;;;;;4858342;29;20047;-82
2023/01/27 04:24:03;;;;;;;4.63;1.08;;;4.00;99.90;;;;;;4859677;29;20037;-82
2023/01/27 04:26:33;;;;;;;1.88;0.70;;;4.00;99.90;;;;;;4869007;29;20465;-81
2023/01/27 04:29:03;;;;;;;2.63;0.93;;;4.00;99.90;;;;;;4869051;29;20071;-82
2023/01/27 04:31:29;;;;;;;2.28;0.80;;;4.00;99.90;;;;;;4876856;29;20082;-82
2023/01/27 04:33:55;;;;;;;3.83;1.10;;;4.00;99.90;;;;;;4852901;29;20041;-82
2023/01/27 04:36:21;;;;;;;4.03;1.00;;;4.00;99.90;;;;;;4859000;29;20043;-82
2023/01/27 04:38:47;;;;;;;3.60;1.80;;;4.00;99.90;;;;;;4869813;29;20214;-82
2023/01/27 04:41:13;;;;;;;2.47;1.10;;;4.00;99.90;;;;;;4861431;29;20037;-82
2023/01/27 04:43:39;;;;;;;1.45;1.20;;;4.00;99.90;;;;;;4890052;29;20046;-82
2023/01/27 04:46:04;;;;;;;5.05;1.38;;;5.10;99.90;;;;;;4868069;29;20497;-83
2023/01/27 04:48:30;;;;;;;4.82;1.10;;;3.90;99.90;;;;;;4860920;29;20040;-83
2023/01/27 04:50:56;;;;;;;3.70;1.50;;;4.20;99.90;;;;;;4883131;29;20043;-83
2023/01/27 04:53:21;;;;;;;4.10;1.40;;;4.00;99.90;;;;;;4837477;29;20104;-83
2023/01/27 04:55:48;;;;;;;3.53;1.40;;;3.90;99.90;;;;;;4856652;29;20300;-83
2023/01/27 04:58:16;;;;;;;2.72;1.42;;;3.90;99.90;;;;;;4899575;29;20331;-83
2023/01/27 05:00:43;;;;;;;4.55;1.60;;;3.90;99.90;;;;;;4877166;29;20071;-82
2023/01/27 05:03:09;;;;;;;;;;;2.90;99.90;;;;;;4877747;29;20068;-83
2023/01/27 05:05:35;;;;;;;3.25;1.90;;;5.00;99.90;;;;;;4881149;29;19946;-83
2023/01/27 05:08:06;;;;;;;3.80;1.80;;;3.90;99.90;;;;;;4873721;29;20123;-83
2023/01/27 05:10:32;;;;;;;3.65;2.08;;;4.00;99.90;;;;;;4864225;29;20088;-82
2023/01/27 05:12:58;;;;;;;5.32;1.70;;;3.90;99.90;;;;;;4870843;29;20545;-82
2023/01/27 05:15:24;;;;;;;3.95;1.50;;;3.90;99.90;;;;;;4876132;29;20132;-82
2023/01/27 05:17:50;;;;;;;;;;;5.30;99.90;;;;;;4873809;29;20525;-82
2023/01/27 05:20:16;;;;;;;4.93;1.77;;;3.90;99.90;;;;;;4878780;29;19926;-82
2023/01/27 05:22:42;;;;;;;4.88;1.85;;;3.90;99.90;;;;;;4883214;29;20036;-82
2023/01/27 05:25:08;;;;;;;5.07;1.40;;;4.00;99.90;;;;;;4856065;29;20036;-82
2023/01/27 05:27:34;;;;;;;;;;;3.90;99.90;;;;;;4871797;29;20131;-82
2023/01/27 05:30:00;;;;;;;3.45;1.55;;;4.80;99.90;;;;;;4871211;29;20069;-82
2023/01/27 05:32:26;;;;;;;3.65;1.60;;;4.40;99.90;;;;;;4849990;29;20036;-82
2023/01/27 05:34:51;;;;;;;2.65;1.52;;;3.90;99.90;;;;;;4876115;29;20044;-82
2023/01/27 05:37:17;;;;;;;3.90;1.65;;;4.40;99.90;;;;;;4874061;29;20056;-82
2023/01/27 05:39:43;;;;;;;2.43;1.50;;;3.90;99.90;;;;;;4878973;29;20045;-83
2023/01/27 05:42:08;;;;;;;4.47;1.87;;;4.20;99.90;;;;;;4858496;29;20037;-82
2023/01/27 05:44:34;;;;;;;2.53;1.43;;;5.50;99.90;;;;;;4836648;29;20388;-82
2023/01/27 05:47:00;;;;;;;5.15;1.48;;;3.90;99.90;;;;;;4840153;29;20398;-82
2023/01/27 05:49:25;;;;;;;3.85;1.35;;;3.90;99.90;;;;;;4857389;29;20052;-82
2023/01/27 05:51:51;;;;;;;3.08;1.45;;;3.90;99.90;;;;;;4856091;29;20047;-82
2023/01/27 05:54:17;;;;;;;3.00;1.30;;;4.00;99.90;;;;;;4874105;29;20072;-82
2023/01/27 05:56:42;;;;;;;4.20;1.40;;;3.90;99.90;;;;;;4874464;29;20051;-82
2023/01/27 05:59:09;;;;;;;1.55;1.20;;;4.50;99.90;;;;;;4834888;29;20486;-81
2023/01/27 06:01:38;;;;;;;2.33;1.20;;;5.20;99.90;;;;;;4869004;29;20072;-82
2023/01/27 06:04:05;;;;;;;2.85;1.40;;;5.20;99.90;;;;;;4882366;29;20039;-82
2023/01/27 06:06:31;;;;;;;3.20;1.33;;;3.90;99.90;;;;;;4872937;29;20091;-82
2023/01/27 06:08:57;;;;;;;3.08;1.20;;;3.90;99.90;;;;;;4866527;29;20159;-82
2023/01/27 06:11:24;;;;;;;3.42;1.17;;;3.90;99.90;;;;;;4883288;29;20055;-82
2023/01/27 06:13:50;;;;;;;;;;;5.00;99.90;;;;;;4892698;29;20127;-82
2023/01/27 06:16:18;;;;;;;1.90;1.20;;;3.90;99.90;;;;;;4872648;29;19923;-82
2023/01/27 06:18:45;;;;;;;3.03;1.00;;;3.80;99.90;;;;;;4870565;29;20084;-82
2023/01/27 06:21:12;;;;;;;2.75;1.10;;;3.80;99.90;;;;;;4863689;29;20120;-82
2023/01/27 06:23:39;;;;;;;1.88;1.10;;;3.80;99.90;;;;;;4881683;29;20036;-82
2023/01/27 06:26:10;;;;;;;2.28;1.23;;;3.80;99.90;;;;;;4881968;29;20390;-82
2023/01/27 06:28:37;;;;;;;3.28;1.23;;;4.40;99.90;;;;;;4878307;29;20123;-82
2023/01/27 06:31:04;;;;;;;8.88;1.20;;;3.80;99.90;;;;;;4868159;29;20043;-82
2023/01/27 06:33:30;;;;;;;2.40;1.00;;;3.80;99.90;;;;;;4868618;29;20041;-82
2023/01/27 06:36:01;;;;;;;2.47;1.05;;;4.20;99.90;;;;;;4858159;29;20040;-82
2023/01/27 06:38:27;;;;;;;2.65;1.00;;;4.40;99.90;;;;;;4880271;29;20037;-82
2023/01/27 06:40:52;;;;;;;3.97;1.20;;;3.80;99.90;;;;;;4860698;29;20568;-83
2023/01/27 06:43:18;;;;;;;4.53;1.00;;;3.80;99.90;;;;;;4834349;29;20434;-82
2023/01/27 06:45:44;;;;;;;2.60;0.90;;;4.00;99.90;;;;;;4856578;29;20047;-82
2023/01/27 06:48:09;;;;;;;2.33;0.87;;;3.80;99.90;;;;;;4855217;29;20300;-83
2023/01/27 06:50:36;;;;;;;1.02;0.85;;;3.80;99.90;;;;;;4847931;29;20135;-83
2023/01/27 06:53:04;;;;;;;6.35;1.00;;;3.80;99.90;;;;;;4871308;29;20183;-83
2023/01/27 06:55:30;;;;;;;2.90;1.00;;;3.80;99.90;;;;;;4875125;29;20063;-83
2023/01/27 06:57:55;;;;;;;0.95;0.70;;;5.00;99.90;;;;;;4855791;29;20045;-84
2023/01/27 07:00:21;;;;;;;2.10;1.20;;;4.70;99.90;;;;;;4878018;29;20107;-83
2023/01/27 07:02:47;;;;;;;2.80;0.98;;;3.80;99.90;;;;;;4873107;29;20458;-83
2023/01/27 07:05:14;;;;;;;2.70;0.93;;;3.80;99.90;;;;;;4895498;29;20570;-83
2023/01/27 07:07:42;;;;;;;2.72;1.00;;;3.80;99.90;;;;;;4834106;29;20570;-84
2023/01/27 07:10:08;;;;;;;1.30;0.93;;;3.80;99.90;;;;;;4873327;29;20119;-83
2023/01/27 07:12:36;;;;;;;1.90;1.00;;;3.80;99.90;;;;;;4859245;29;20321;-84
2023/01/27 07:15:04;;;;;;;2.00;0.80;;;4.00;99.90;;;;;;4875776;29;20047;-84
2023/01/27 07:17:30;;;;;;;2.50;0.90;;;3.70;99.90;;;;;;4868976;29;20048;-83
2023/01/27 07:19:56;;;;;;;3.20;1.10;;;4.10;99.90;;;;;;4872751;29;20073;-82
2023/01/27 07:22:22;;;;;;;3.63;0.90;;;4.20;99.90;;;;;;4836196;29;20285;-82
2023/01/27 07:24:47;;;;;;;6.45;1.00;;;4.90;99.90;;;;;;4854831;29;20040;-81
2023/01/27 07:27:13;;;;;;;4.90;1.10;;;5.20;99.90;;;;;;4857059;29;20053;-81
2023/01/27 07:29:39;;;;;;;3.03;0.90;;;3.70;99.90;;;;;;4842929;29;20049;-80
2023/01/27 07:32:05;;;;;;;2.70;0.95;;;4.20;99.90;;;;;;4862498;29;20048;-80
2023/01/27 07:34:31;;;;;;;3.25;1.00;;;3.80;99.90;;;;;;4838807;29;20080;-80
2023/01/27 07:36:57;;;;;;;5.47;1.20;;;4.90;99.90;;;;;;4849446;29;20045;-81
2023/01/27 07:39:22;;;;;;;2.83;1.20;;;4.30;99.90;;;;;;4865755;29;20302;-81
2023/01/27 07:41:48;;;;;;;2.70;1.30;;;4.50;99.90;;;;;;4865464;29;20040;-81
2023/01/27 07:44:14;;;;;;;2.63;1.15;;;4.30;99.90;;;;;;4862740;29;20041;-82
2023/01/27 07:46:40;;;;;;;5.20;1.42;;;4.10;99.90;;;;;;4865107;29;20052;-81
2023/01/27 07:49:06;;;;;;;4.30;1.30;;;3.70;99.90;;;;;;4851517;29;20104;-81
2023/01/27 07:51:31;;;;;;;5.55;1.60;;;3.70;99.90;;;;;;4868917;29;20459;-82
2023/01/27 07:53:57;;;;;;;3.83;1.40;;;3.70;99.90;;;;;;4871080;29;20382;-82
2023/01/27 07:56:23;;;;;;;6.33;1.77;;;3.70;99.90;;;;;;4867022;29;20388;-82
2023/01/27 07:58:49;;;;;;;2.47;1.33;;;3.70;99.90;;;;;;4873260;29;20048;-82
2023/01/27 08:01:14;;;;;;;5.57;1.43;;;3.70;99.90;;;;;;4858457;29;20044;-82
2023/01/27 08:03:41;;;;;;;3.25;1.60;;;5.10;99.90;;;;;;4881672;29;20781;-81
2023/01/27 08:06:09;;;;;;;3.90;1.52;;;2.90;99.90;;;;;;4851006;29;20040;-82
2023/01/27 08:08:35;;;;;;;5.47;1.48;;;3.80;99.90;;;;;;4865577;29;20154;-82
2023/01/27 08:11:01;;;;;;;;;;;3.80;99.90;;;;;;4867632;29;20048;-82
2023/01/27 08:13:27;;;;;;;6.13;1.70;;;3.80;99.90;;;;;;4876779;29;20364;-82
2023/01/27 08:16:01;;;;;;;5.40;2.22;;;3.80;99.90;;;;;;4866380;29;20884;-82
2023/01/27 08:18:28;;;;;;;6.25;1.65;;;3.80;99.90;;;;;;4847886;29;20173;-82
2023/01/27 08:20:58;;;;;;;3.53;1.23;;;3.80;99.90;;;;;;4892391;29;20036;-82
2023/01/27 08:23:24;;;;;;;5.57;2.03;;;3.80;99.90;;;;;;4873828;29;20052;-82
2023/01/27 08:25:50;;;;;;;;;;;3.80;99.90;;;;;;4874445;29;20056;-82
2023/01/27 08:28:17;;;;;;;7.78;1.75;;;5.40;99.90;;;;;;4895562;29;19934;-81
2023/01/27 08:30:43;;;;;;;5.30;1.50;;;3.80;99.90;;;;;;4875930;29;20048;-83
2023/01/27 08:33:09;;;;;;;4.82;1.60;;;3.80;99.90;;;;;;4889957;29;20051;-82
2023/01/27 08:35:37;;;;;;;5.13;1.50;;;3.90;99.90;;;;;;4860748;29;20051;-81
2023/01/27 08:38:04;;;;;;;6.20;1.80;;;5.00;99.90;;;;;;4875553;29;20466;-81
2023/01/27 08:40:29;;;;;;;;;;;3.90;99.90;;;;;;4876917;29;20092;-84
2023/01/27 08:42:55;;;;;;;3.72;1.48;;;4.60;99.90;;;;;;4856105;29;20498;-82
2023/01/27 08:45:21;;;;;;;5.68;2.05;;;4.70;99.90;;;;;;4853346;29;20051;-83
2023/01/27 08:48:07;;;;;;;6.47;2.00;;;5.50;99.90;;;;;;4877162;29;20058;-83
2023/01/27 08:50:33;;;;;;;5.32;1.40;;;6.00;99.90;;;;;;4872753;29;20409;-83
2023/01/27 08:53:00;;;;;;;3.95;1.30;;;6.60;99.90;;;;;;4871627;29;20051;-82
2023/01/27 08:55:30;;;;;;;7.38;1.58;;;6.80;99.90;;;;;;4872372;29;20108;-82
2023/01/27 08:57:56;;;;;;;3.35;1.40;;;6.80;99.90;;;;;;4891138;29;20044;-82
2023/01/27 09:00:22;;;;;;;6.13;1.40;;;6.40;99.90;;;;;;4891039;29;20044;-81
2023/01/27 09:02:49;;;;;;;5.28;1.75;;;6.10;99.90;;;;;;4898971;29;20044;-82
2023/01/27 09:05:16;;;;;;;4.65;1.50;;;6.40;99.90;;;;;;4877602;29;20382;-83
2023/01/27 09:07:43;;;;;;;5.35;1.70;;;5.70;99.90;;;;;;4889233;29;20037;-83
2023/01/27 09:10:09;;;;;;;5.70;1.58;;;5.40;99.90;;;;;;4896186;29;20043;-82
2023/01/27 09:12:35;;;;;;;7.45;1.80;;;5.00;99.90;;;;;;4875351;29;20139;-82
2023/01/27 09:15:01;;;;;;;3.90;1.80;;;5.00;99.90;;;;;;4892159;29;20119;-82
2023/01/27 09:17:26;;;;;;;4.75;1.50;;;5.00;99.90;;;;;;4858212;29;20372;-82
2023/01/27 09:19:52;;;;;;;5.18;1.95;;;5.00;99.90;;;;;;4861494;29;20048;-82
2023/01/27 09:22:18;;;;;;;3.20;1.58;;;4.80;99.90;;;;;;4874529;29;20041;-82
2023/01/27 09:24:44;;;;;;;4.63;1.30;;;4.80;99.90;;;;;;4870314;29;20067;-82
2023/01/27 09:27:09;;;;;;;3.17;1.60;;;4.80;99.90;;;;;;4890179;29;20131;-82
2023/01/27 09:29:35;;;;;;;3.65;1.52;;;4.70;99.90;;;;;;4875403;29;20056;-82
2023/01/27 09:32:02;;;;;;;5.60;1.75;;;4.80;99.90;;;;;;4887812;29;20473;-82
2023/01/27 09:34:27;;;;;;;;;;;4.80;99.90;;;;;;4855980;29;20139;-81
2023/01/27 09:36:59;;;;;;;4.20;1.52;;;5.10;99.90;;;;;;4874019;29;20404;-82
2023/01/27 09:39:26;;;;;;;2.38;1.25;;;4.90;99.90;;;;;;4875061;29;20409;-81
2023/01/27 09:42:20;;;;;;;3.83;1.17;;;5.00;99.90;;;;;;4843146;29;20036;-81
2023/01/27 09:45:05;;;;;;;2.15;1.10;;;5.30;99.90;;;;;;4874137;29;20048;-81
2023/01/27 09:47:34;;;;;;;1.88;1.10;;;5.60;99.90;;;;;;4875225;29;20032;-82
2023/01/27 09:50:29;;;;;;;3.42;1.40;;;5.60;99.90;;;;;;4874685;29;20044;-82
2023/01/27 09:53:07;;;;;;;3.58;1.50;;;5.60;99.90;;;;;;4888833;29;20036;-82
2023/01/27 09:56:05;;;;;;;5.10;1.60;;;5.70;99.90;;;;;;4888751;29;20126;-82
2023/01/27 09:58:42;;;;;;;3.65;1.13;;;5.80;99.90;;;;;;4886791;29;20040;-81
2023/01/27 10:01:40;;;;;;;2.90;1.40;;;5.70;99.90;;;;;;4888043;29;20040;-82
2023/01/27 10:04:56;;;;;;;3.58;1.05;;;5.50;99.90;;;;;;4885341;29;20064;-81
2023/01/27 10:07:53;;;;;;;2.05;1.10;;;5.40;99.90;;;;;;4881947;29;20426;-82
2023/01/27 10:10:46;;;;;;;2.05;1.17;;;5.20;99.90;;;;;;4889062;29;20524;-82
2023/01/27 10:13:46;;;;;;;2.33;1.15;;;5.10;99.90;;;;;;4868993;29;20088;-82
2023/01/27 10:16:28;;;;;;;4.25;1.38;;;5.10;99.90;;;;;;4875997;29;20083;-82
2023/01/27 10:19:05;;;;;;;1.92;1.10;;;5.00;99.90;;;;;;4872946;29;20040;-82
2023/01/27 10:22:01;;;;;;;5.40;1.05;;;4.90;99.90;;;;;;4889572;29;20371;-81
2023/01/27 10:25:02;;;;;;;2.30;0.90;;;4.90;99.90;;;;;;4889887;29;20036;-81
2023/01/27 10:27:35;;;;;;;1.20;0.90;;;4.80;99.90;;;;;;4872444;29;20150;-81
2023/01/27 10:30:21;;;;;;;2.45;1.10;;;4.90;99.90;;;;;;4889132;29;20494;-81
2023/01/27 10:33:17;;;;;;;2.35;0.93;;;4.90;99.90;;;;;;4872618;29;20490;-81
2023/01/27 10:36:13;;;;;;;1.90;1.38;;;4.80;99.90;;;;;;4856706;29;20138;-80
2023/01/27 10:39:07;;;;;;;1.88;1.27;;;5.00;99.90;;;;;;4873639;29;20130;-80
2023/01/27 10:41:55;;;;;;;2.08;1.00;;;5.10;99.90;;;;;;4865944;29;20043;-82
2023/01/27 10:45:05;;;;;;;2.38;1.30;;;5.20;99.90;;;;;;4871336;29;20036;-81
2023/01/27 10:47:47;;;;;;;4.05;1.58;;;5.20;99.90;;;;;;4768355;30;20126;-81
2023/01/27 10:50:18;;;;;;;2.90;1.38;;;5.20;99.90;;;;;;4776145;30;20035;-81
2023/01/27 10:53:06;;;;;;;3.38;1.38;;;5.10;99.90;;;;;;4836344;29;20055;-81
2023/01/27 10:55:56;;;;;;;1.50;1.00;;;5.10;99.90;;;;;;4869928;29;20053;-81
2023/01/27 10:58:43;;;;;;;2.03;1.15;;;5.10;99.90;;;;;;4870843;29;20032;-81
2023/01/27 11:01:12;;;;;;;1.80;1.30;;;5.00;99.90;;;;;;4887171;29;20032;-81
2023/01/27 11:03:56;;;;;;;2.25;1.30;;;5.00;99.90;;;;;;4871205;29;20824;-81
2023/01/27 11:06:31;;;;;;;2.00;1.33;;;4.90;99.90;;;;;;4873162;29;20490;-81
2023/01/27 11:09:23;;;;;;;3.35;1.73;;;4.80;99.90;;;;;;4887781;29;20135;-81
2023/01/27 11:11:50;;;;;;;2.33;1.77;;;4.80;99.90;;;;;;4890064;29;20048;-81
2023/01/27 11:14:31;;;;;;;3.88;2.03;;;4.70;99.90;;;;;;4872089;29;20536;-81
2023/01/27 11:17:11;;;;;;;2.50;1.80;;;4.70;99.90;;;;;;4871115;29;20048;-81
2023/01/27 11:19:44;;;;;;;3.28;1.90;;;5.00;99.90;;;;;;4886980;29;20107;-81
2023/01/27 11:22:39;;;;;;;4.90;2.47;;;4.80;99.90;;;;;;4889319;29;20416;-81
2023/01/27 11:25:40;;;;;;;3.20;2.28;;;4.60;99.90;;;;;;4873397;29;20036;-81
2023/01/27 11:28:21;;;;;;;3.15;2.53;;;4.60;99.90;;;;;;4891236;29;20063;-81
2023/01/27 11:30:57;;;;;;;2.88;2.25;;;4.60;99.90;;;;;;4885988;29;20047;-81
2023/01/27 11:33:28;;;;;;;3.42;2.35;;;4.60;99.90;;;;;;4873088;29;20068;-81
2023/01/27 11:35:54;;;;;;;3.88;2.60;;;5.40;99.90;;;;;;4887572;29;20037;-81
2023/01/27 11:38:21;;;;;;;5.30;2.40;;;4.60;99.90;;;;;;4870323;29;20040;-81
2023/01/27 11:40:50;;;;;;;6.35;3.10;;;4.60;99.90;;;;;;4888230;29;20044;-81
2023/01/27 11:43:24;;;;;;;4.80;2.97;;;4.60;99.90;;;;;;4884520;29;20071;-82
2023/01/27 11:45:54;;;;;;;6.45;3.03;;;4.50;99.90;;;;;;4888350;29;20112;-82
2023/01/27 11:48:20;;;;;;;5.47;3.58;;;5.30;99.90;;;;;;4891790;29;20036;-82
2023/01/27 11:50:46;;;;;;;5.30;3.30;;;4.40;99.90;;;;;;4872220;29;20055;-82
2023/01/27 11:53:38;;;;;;;5.22;3.17;;;4.30;99.90;;;;;;4842707;29;20052;-81
2023/01/27 11:56:25;;;;;;;4.90;3.25;;;4.60;99.90;;;;;;4893428;29;20037;-81
2023/01/27 11:59:15;;;;;;;5.68;2.80;;;4.30;99.90;;;;;;4888072;29;20084;-82
2023/01/27 12:01:54;;;;;;;5.50;3.05;;;4.40;99.90;;;;;;4878197;29;20040;-81
2023/01/27 12:04:38;;;;;;;4.97;2.60;;;4.40;99.90;;;;;;4890963;29;20039;-82
2023/01/27 12:07:19;;;;;;;4.00;2.70;;;4.40;99.90;;;;;;4891369;29;20076;-82
2023/01/27 12:09:44;;;;;;;2.63;2.00;;;4.40;99.90;;;;;;4872137;29;20043;-82
2023/01/27 12:12:18;;;;;;;3.00;2.20;;;4.50;99.90;;;;;;4878988;29;20044;-82
2023/01/27 12:14:49;;;;;;;2.42;2.08;;;4.50;99.90;;;;;;4891369;29;20096;-82
2023/01/27 12:17:26;;;;;;;3.38;2.20;;;4.60;99.90;;;;;;4891577;29;20059;-82
2023/01/27 12:19:57;;;;;;;4.13;2.60;;;4.60;99.90;;;;;;4895223;29;20037;-82
2023/01/27 12:22:35;;;;;;;5.38;2.53;;;4.50;99.90;;;;;;4887100;29;20493;-81
2023/01/27 12:25:04;;;;;;;3.25;2.38;;;4.50;99.90;;;;;;4900341;29;20032;-81
2023/01/27 12:27:54;;;;;;;4.35;2.80;;;4.60;99.90;;;;;;4897967;29;20057;-81
2023/01/27 12:30:29;;;;;;;4.38;2.92;;;4.40;99.90;;;;;;4898706;29;20119;-82
2023/01/27 12:32:56;;;;;;;3.40;2.30;;;4.40;99.90;;;;;;4879071;29;20521;-82
2023/01/27 12:35:34;;;;;;;4.60;2.75;;;4.60;99.90;;;;;;4873625;29;20045;-82
2023/01/27 12:38:19;;;;;;;5.47;2.90;;;4.40;99.90;;;;;;4887383;29;20059;-82
2023/01/27 12:40:46;;;;;;;5.00;2.72;;;4.30;99.90;;;;;;4890927;29;20088;-82
2023/01/27 12:43:19;;;;;;;4.85;3.00;;;4.40;99.90;;;;;;4876428;29;20120;-81
2023/01/27 12:46:03;;;;;;;4.05;3.00;;;5.10;99.90;;;;;;4873844;29;20509;-82
2023/01/27 12:48:35;;;;;;;4.38;2.72;;;4.60;99.90;;;;;;4874263;29;20048;-82
2023/01/27 12:51:34;;;;;;;4.30;3.17;;;4.30;99.90;;;;;;4888903;29;20646;-82
2023/01/27 12:54:24;;;;;;;3.42;2.70;;;4.30;99.90;;;;;;4874368;29;20047;-82
2023/01/27 12:56:52;;;;;;;4.78;2.85;;;4.30;99.90;;;;;;4887119;29;20124;-82
2023/01/27 12:59:23;;;;;;;3.55;2.45;;;4.30;99.90;;;;;;4860029;29;20099;-81
2023/01/27 13:02:17;;;;;;;3.95;2.70;;;4.30;99.90;;;;;;4874910;29;20055;-82
2023/01/27 13:04:46;;;;;;;3.50;2.60;;;4.30;99.90;;;;;;4889486;29;20040;-82
2023/01/27 13:07:16;;;;;;;3.33;2.10;;;4.40;99.90;;;;;;4893214;29;20115;-82
2023/01/27 13:09:59;;;;;;;4.20;1.90;;;4.30;99.90;;;;;;4888127;29;20066;-82
2023/01/27 13:12:29;;;;;;;2.50;1.90;;;4.40;99.90;;;;;;4880379;29;20132;-82
2023/01/27 13:15:19;;;;;;;3.35;1.98;;;4.30;99.90;;;;;;4876735;29;20055;-82
2023/01/27 13:17:53;;;;;;;2.90;1.95;;;4.30;99.90;;;;;;4892730;29;20045;-82
2023/01/27 13:20:29;;;;;;;2.75;2.00;;;4.30;99.90;;;;;;4890951;29;20457;-82
2023/01/27 13:23:17;;;;;;;3.90;2.03;;;4.20;99.90;;;;;;4893098;29;20429;-81
2023/01/27 13:25:50;;;;;;;;;;;4.20;99.90;;;;;;4874325;29;20442;-82
2023/01/27 13:28:30;;;;;;;2.78;2.05;;;4.20;99.90;;;;;;4892215;29;19926;-82
2023/01/27 13:31:02;;;;;;;2.70;1.95;;;4.20;99.90;;;;;;4889978;29;20076;-82
2023/01/27 13:33:31;;;;;;;3.45;2.47;;;4.20;99.90;;;;;;4877421;29;20123;-82
2023/01/27 13:36:23;;;;;;;2.28;2.05;;;4.20;99.90;;;;;;4875754;29;20050;-82
2023/01/27 13:38:56;;;;;;;2.17;1.98;;;4.20;99.90;;;;;;4894869;29;20105;-84
2023/01/27 13:41:41;;;;;;;4.10;2.40;;;4.40;99.90;;;;;;4872023;29;20041;-82
2023/01/27 13:44:24;;;;;;;3.53;2.25;;;4.40;99.90;;;;;;4888629;29;20051;-81
2023/01/27 13:46:50;;;;;;;3.67;2.50;;;4.50;99.90;;;;;;4885477;29;20127;-82
2023/01/27 13:49:22;;;;;;;3.97;2.45;;;4.20;99.90;;;;;;4855346;29;20155;-81
2023/01/27 13:51:47;;;;;;;2.97;2.30;;;4.20;99.90;;;;;;4889748;29;20128;-82
2023/01/27 13:54:14;;;;;;;3.53;2.50;;;4.20;99.90;;;;;;4870628;29;20116;-82